createdAt,value
2022-10-31T00:01:24.699Z,19.87
2022-10-31T00:03:51.753Z,19.63
2022-10-31T00:06:19.361Z,21.30
2022-10-31T00:08:47.991Z,20.53
2022-10-31T00:11:14.852Z,18.03
2022-10-31T00:13:41.776Z,18.20
2022-10-31T00:16:15.910Z,21.67
2022-10-31T00:18:42.749Z,17.73
2022-10-31T00:21:12.779Z,17.00
2022-10-31T00:23:39.678Z,24.10
2022-10-31T00:26:09.301Z,22.10
2022-10-31T00:28:39.210Z,19.43
2022-10-31T00:31:08.738Z,18.97
2022-10-31T00:33:37.680Z,16.63
2022-10-31T00:36:06.085Z,19.87
2022-10-31T00:38:33.319Z,21.17
2022-10-31T00:41:00.159Z,17.93
2022-10-31T00:43:26.998Z,19.10
2022-10-31T00:45:53.844Z,18.10
2022-10-31T00:48:29.783Z,15.63
2022-10-31T00:50:57.160Z,17.90
2022-10-31T00:53:24.238Z,21.27
2022-10-31T00:55:51.030Z,18.57
2022-10-31T00:58:18.009Z,18.70
2022-10-31T01:00:51.108Z,16.67
2022-10-31T01:03:18.778Z,19.80
2022-10-31T01:05:45.586Z,17.47
2022-10-31T01:08:12.456Z,19.70
2022-10-31T01:10:39.231Z,17.53
2022-10-31T01:13:06.190Z,18.20
2022-10-31T01:15:32.976Z,17.53
2022-10-31T01:18:00.091Z,16.07
2022-10-31T01:20:34.334Z,19.50
2022-10-31T01:23:01.141Z,21.47
2022-10-31T01:25:30.915Z,18.77
2022-10-31T01:28:00.301Z,20.00
2022-10-31T01:30:27.856Z,20.70
2022-10-31T01:32:54.625Z,19.00
2022-10-31T01:35:29.621Z,18.20
2022-10-31T01:37:56.560Z,20.13
2022-10-31T01:40:23.313Z,21.70
2022-10-31T01:42:50.195Z,22.47
2022-10-31T01:45:20.271Z,19.20
2022-10-31T01:47:49.918Z,20.30
2022-10-31T01:50:33.289Z,21.50
2022-10-31T01:53:01.925Z,20.70
2022-10-31T01:55:33.549Z,20.10
2022-10-31T01:58:07.423Z,20.07
2022-10-31T02:00:34.602Z,19.77
2022-10-31T02:03:02.080Z,23.07
2022-10-31T02:05:31.252Z,20.47
2022-10-31T02:08:03.643Z,21.07
2022-10-31T02:10:33.554Z,24.87
2022-10-31T02:13:03.747Z,23.50
2022-10-31T02:15:32.865Z,20.63
2022-10-31T02:18:00.904Z,24.20
2022-10-31T02:20:41.076Z,22.67
2022-10-31T02:23:50.492Z,23.53
2022-10-31T02:26:32.406Z,24.30
2022-10-31T02:29:26.124Z,27.30
2022-10-31T02:31:56.254Z,23.63
2022-10-31T02:34:39.323Z,24.70
2022-10-31T02:37:26.630Z,27.20
2022-10-31T02:40:14.324Z,26.67
2022-10-31T02:45:15.525Z,30.53
2022-10-31T02:47:43.735Z,31.20
2022-10-31T02:50:17.293Z,28.43
2022-10-31T02:52:44.108Z,27.93
2022-10-31T02:55:27.655Z,28.53
2022-10-31T02:58:21.469Z,26.63
2022-10-31T03:01:06.524Z,27.93
2022-10-31T03:03:45.862Z,27.07
2022-10-31T03:06:24.495Z,25.33
2022-10-31T03:09:04.459Z,28.40
2022-10-31T03:11:40.127Z,29.10
2022-10-31T03:14:13.288Z,27.97
2022-10-31T03:17:08.143Z,28.77
2022-10-31T03:19:41.090Z,29.57
2022-10-31T03:22:39.053Z,32.13
2022-10-31T03:25:07.549Z,32.03
2022-10-31T03:27:37.456Z,33.97
2022-10-31T03:30:06.601Z,31.60
2022-10-31T03:32:39.125Z,33.87
2022-10-31T03:35:08.833Z,32.37
2022-10-31T03:37:37.569Z,30.97
2022-10-31T03:40:07.793Z,32.27
2022-10-31T03:42:39.459Z,36.33
2022-10-31T03:45:11.347Z,36.03
2022-10-31T03:47:39.912Z,33.87
2022-10-31T03:50:08.902Z,34.30
2022-10-31T03:52:58.567Z,35.70
2022-10-31T03:55:37.858Z,35.83
2022-10-31T03:58:09.485Z,37.70
2022-10-31T04:00:41.467Z,33.80
2022-10-31T04:03:12.110Z,37.10
2022-10-31T04:05:41.663Z,34.57
2022-10-31T04:08:13.782Z,37.10
2022-10-31T04:10:42.684Z,39.27
2022-10-31T04:13:14.196Z,37.03
2022-10-31T04:15:43.657Z,37.17
2022-10-31T04:18:10.504Z,35.60
2022-10-31T04:20:40.094Z,35.70
2022-10-31T04:23:22.760Z,36.87
2022-10-31T04:25:59.412Z,37.40
2022-10-31T04:32:12.470Z,34.50
2022-10-31T04:34:39.999Z,34.47
2022-10-31T04:37:06.918Z,33.57
2022-10-31T04:39:36.532Z,36.27
2022-10-31T04:42:09.547Z,35.00
2022-10-31T04:44:39.819Z,34.03
2022-10-31T04:47:17.857Z,33.63
2022-10-31T04:49:44.672Z,31.40
2022-10-31T04:52:11.851Z,33.53
2022-10-31T04:54:38.610Z,32.47
2022-10-31T04:57:05.873Z,37.63
2022-10-31T04:59:32.885Z,33.10
2022-10-31T05:01:59.834Z,34.07
2022-10-31T05:04:27.051Z,33.43
2022-10-31T05:06:54.185Z,35.30
2022-10-31T05:09:21.079Z,34.87
2022-10-31T05:11:47.854Z,34.47
2022-10-31T05:14:14.619Z,34.87
2022-10-31T05:16:41.410Z,34.73
2022-10-31T05:19:08.215Z,32.70
2022-10-31T05:21:35.663Z,36.40
2022-10-31T05:24:02.653Z,40.43
2022-10-31T05:26:29.447Z,33.23
2022-10-31T05:31:50.172Z,31.93
2022-10-31T05:41:15.485Z,31.20
2022-10-31T05:44:01.248Z,34.17
2022-10-31T05:46:56.691Z,31.77
2022-10-31T05:49:56.466Z,32.23
2022-10-31T05:52:26.432Z,33.87
2022-10-31T05:54:57.712Z,32.20
2022-10-31T05:57:36.396Z,31.43
2022-10-31T06:00:22.387Z,32.20
2022-10-31T06:03:17.151Z,31.10
2022-10-31T06:05:50.705Z,32.63
2022-10-31T06:08:23.966Z,40.10
2022-10-31T06:10:51.023Z,41.03
2022-10-31T06:13:17.874Z,41.80
2022-10-31T06:15:45.414Z,44.63
2022-10-31T06:18:12.240Z,40.30
2022-10-31T06:20:39.580Z,44.13
2022-10-31T06:23:09.234Z,40.70
2022-10-31T06:25:36.833Z,44.20
2022-10-31T06:28:03.827Z,39.60
2022-10-31T06:30:33.642Z,43.93
2022-10-31T06:33:20.746Z,44.13
2022-10-31T06:39:19.029Z,47.00
2022-10-31T06:42:11.173Z,44.83
2022-10-31T06:44:48.189Z,40.40
2022-10-31T06:47:19.117Z,44.60
2022-10-31T06:49:53.112Z,43.23
2022-10-31T06:52:19.942Z,41.93
2022-10-31T06:54:47.876Z,50.40
2022-10-31T06:57:23.965Z,44.17
2022-10-31T07:00:02.550Z,44.93
2022-10-31T07:02:38.658Z,42.53
2022-10-31T07:05:08.864Z,40.93
2022-10-31T07:07:35.728Z,40.23
2022-10-31T07:10:02.780Z,40.07
2022-10-31T07:12:32.719Z,43.53
2022-10-31T07:15:27.725Z,38.30
2022-10-31T07:20:44.634Z,45.13
2022-10-31T07:23:21.283Z,35.97
2022-10-31T07:26:00.691Z,32.90
2022-10-31T07:28:28.485Z,32.20
2022-10-31T07:31:13.669Z,32.60
2022-10-31T07:33:54.204Z,33.23
2022-10-31T07:36:35.991Z,31.47
2022-10-31T07:39:11.838Z,29.83
2022-10-31T07:41:43.429Z,31.83
2022-10-31T07:47:41.456Z,28.77
2022-10-31T07:57:16.158Z,37.73
2022-10-31T07:59:52.340Z,31.67
2022-10-31T08:02:21.758Z,29.80
2022-10-31T08:04:52.523Z,29.43
2022-10-31T08:07:21.039Z,27.07
2022-10-31T08:09:49.389Z,31.67
2022-10-31T08:12:17.002Z,31.53
2022-10-31T08:14:45.245Z,31.07
2022-10-31T08:17:12.307Z,28.00
2022-10-31T08:19:41.631Z,26.67
2022-10-31T08:22:14.235Z,24.80
2022-10-31T08:24:58.614Z,24.20
2022-10-31T08:27:33.200Z,23.90
2022-10-31T08:30:00.090Z,22.97
2022-10-31T08:32:29.878Z,21.13
2022-10-31T08:34:59.776Z,24.27
2022-10-31T08:37:26.552Z,22.30
2022-10-31T08:39:59.839Z,23.07
2022-10-31T08:42:26.727Z,23.43
2022-10-31T08:44:53.727Z,23.37
2022-10-31T08:47:20.923Z,23.03
2022-10-31T08:49:47.696Z,22.27
2022-10-31T08:52:16.161Z,23.37
2022-10-31T08:54:43.539Z,21.07
2022-10-31T08:57:21.044Z,22.00
2022-10-31T08:59:57.012Z,22.77
2022-10-31T09:02:36.442Z,22.53
2022-10-31T09:05:06.348Z,25.50
2022-10-31T09:07:33.777Z,23.77
2022-10-31T09:10:00.626Z,24.27
2022-10-31T09:12:27.421Z,20.90
2022-10-31T09:14:54.238Z,38.30
2022-10-31T09:17:21.062Z,24.73
2022-10-31T09:19:47.864Z,21.50
2022-10-31T09:22:15.285Z,22.53
2022-10-31T09:24:42.078Z,21.27
2022-10-31T09:27:10.066Z,24.20
2022-10-31T09:29:36.935Z,22.80
2022-10-31T09:32:03.786Z,21.97
2022-10-31T09:34:39.904Z,22.43
2022-10-31T09:37:06.777Z,21.50
2022-10-31T09:39:33.608Z,23.40
2022-10-31T09:42:06.405Z,24.30
2022-10-31T09:44:39.020Z,26.00
2022-10-31T09:47:30.781Z,22.43
2022-10-31T09:50:23.671Z,20.93
2022-10-31T09:53:41.754Z,21.37
2022-10-31T09:56:17.703Z,21.57
2022-10-31T09:58:47.427Z,22.00
2022-10-31T10:01:42.253Z,21.30
2022-10-31T10:04:26.144Z,20.67
2022-10-31T10:06:53.800Z,24.27
2022-10-31T10:09:27.112Z,18.93
2022-10-31T10:12:09.773Z,18.63
2022-10-31T10:14:39.757Z,17.43
2022-10-31T10:17:49.440Z,17.27
2022-10-31T10:20:21.065Z,41.97
2022-10-31T10:22:55.240Z,27.90
2022-10-31T10:25:41.848Z,18.03
2022-10-31T10:28:28.689Z,19.40
2022-10-31T10:31:06.666Z,18.63
2022-10-31T10:33:48.176Z,16.70
2022-10-31T10:36:26.136Z,16.40
2022-10-31T10:38:53.268Z,17.40
2022-10-31T10:41:25.161Z,18.83
2022-10-31T10:43:52.856Z,15.90
2022-10-31T10:47:11.552Z,17.83
2022-10-31T10:49:50.907Z,18.23
2022-10-31T10:52:54.054Z,18.43
2022-10-31T10:55:26.618Z,17.03
2022-10-31T10:58:06.644Z,17.07
2022-10-31T11:00:50.673Z,15.33
2022-10-31T11:03:20.056Z,18.90
2022-10-31T11:05:54.272Z,19.23
2022-10-31T11:08:28.927Z,17.67
2022-10-31T11:11:14.854Z,18.30
2022-10-31T11:13:43.723Z,15.57
2022-10-31T11:16:14.436Z,18.83
2022-10-31T11:18:48.136Z,16.33
2022-10-31T11:21:28.449Z,19.03
2022-10-31T11:24:32.181Z,19.90
2022-10-31T11:27:31.682Z,21.60
2022-10-31T11:42:53.901Z,21.53
2022-10-31T11:58:43.101Z,22.10
2022-10-31T12:13:08.233Z,19.50
2022-10-31T12:15:46.688Z,21.42
2022-10-31T12:18:28.741Z,17.73
2022-10-31T12:21:27.438Z,20.02
2022-10-31T12:24:09.800Z,17.70
2022-10-31T12:27:02.733Z,21.65
2022-10-31T12:29:59.470Z,19.17
2022-10-31T12:33:08.242Z,19.58
2022-10-31T12:36:07.672Z,19.85
2022-10-31T12:38:36.941Z,19.90
2022-10-31T12:41:28.912Z,18.80
2022-10-31T12:44:32.942Z,17.80
2022-10-31T12:47:37.254Z,20.90
2022-10-31T12:50:20.567Z,21.50
2022-10-31T12:53:25.008Z,18.50
2022-10-31T12:56:16.195Z,20.92
2022-10-31T12:59:04.257Z,17.95
2022-10-31T13:01:49.539Z,18.08
2022-10-31T13:04:22.305Z,17.33
2022-10-31T13:06:54.139Z,18.73
2022-10-31T13:09:28.619Z,18.23
2022-10-31T13:12:00.405Z,18.50
2022-10-31T13:14:38.043Z,21.47
2022-10-31T13:17:36.113Z,16.70
2022-10-31T13:20:38.850Z,18.43
2022-10-31T13:23:50.834Z,19.37
2022-10-31T13:27:02.282Z,18.20
2022-10-31T13:30:26.419Z,21.03
2022-10-31T13:33:02.715Z,18.73
2022-10-31T13:35:48.148Z,16.70
2022-10-31T13:38:41.801Z,17.50
2022-10-31T13:41:27.284Z,18.17
2022-10-31T13:44:02.773Z,17.70
2022-10-31T13:46:55.989Z,19.10
2022-10-31T13:49:34.857Z,20.60
2022-10-31T13:52:13.939Z,27.53
2022-10-31T13:54:43.977Z,25.60
2022-10-31T13:57:34.585Z,27.77
2022-10-31T14:00:08.277Z,26.60
2022-10-31T14:02:37.059Z,26.10
2022-10-31T14:05:22.793Z,25.83
2022-10-31T14:07:50.342Z,26.40
2022-10-31T14:10:22.984Z,28.80
2022-10-31T14:12:50.344Z,31.83
2022-10-31T14:15:25.135Z,30.13
2022-10-31T14:18:04.086Z,29.20
2022-10-31T14:20:50.711Z,30.03
2022-10-31T14:23:41.096Z,33.70
2022-10-31T14:26:29.405Z,30.57
2022-10-31T14:29:18.225Z,32.70
2022-10-31T14:31:52.973Z,29.20
2022-10-31T14:34:37.687Z,28.20
2022-10-31T14:37:26.422Z,27.47
2022-10-31T14:40:17.254Z,28.53
2022-10-31T14:42:55.702Z,30.60
2022-10-31T14:45:47.511Z,31.33
2022-10-31T14:48:40.999Z,31.53
2022-10-31T14:51:23.715Z,34.67
2022-10-31T14:53:58.017Z,36.97
2022-10-31T14:56:31.503Z,33.63
2022-10-31T14:59:02.959Z,36.77
2022-10-31T15:01:33.649Z,39.20
2022-10-31T15:04:25.531Z,42.40
2022-10-31T15:07:01.362Z,40.83
2022-10-31T15:09:31.636Z,41.87
2022-10-31T15:12:15.872Z,44.23
2022-10-31T15:14:42.680Z,41.93
2022-10-31T15:17:12.697Z,45.17
2022-10-31T15:19:40.074Z,46.73
2022-10-31T15:22:10.447Z,49.10
2022-10-31T15:24:39.793Z,50.87
2022-10-31T15:27:11.705Z,51.10
2022-10-31T15:30:09.573Z,51.03
2022-10-31T15:32:36.690Z,49.87
2022-10-31T15:35:21.152Z,50.97
2022-10-31T15:37:47.996Z,49.87
2022-10-31T15:40:21.083Z,52.63
2022-10-31T15:43:00.670Z,53.63
2022-10-31T15:45:31.575Z,46.37
2022-10-31T15:48:02.527Z,48.73
2022-10-31T15:51:41.641Z,46.80
2022-10-31T15:54:29.101Z,60.40
2022-10-31T15:56:56.447Z,54.43
2022-10-31T15:59:27.887Z,54.67
2022-10-31T16:02:10.928Z,58.37
2022-10-31T16:04:59.757Z,55.50
2022-10-31T16:07:34.198Z,56.60
2022-10-31T16:10:02.627Z,55.20
2022-10-31T16:12:38.421Z,55.90
2022-10-31T16:15:14.041Z,58.83
2022-10-31T16:18:01.905Z,59.67
2022-10-31T16:23:18.537Z,59.03
2022-10-31T16:25:45.550Z,61.37
2022-10-31T16:28:39.598Z,57.70
2022-10-31T16:31:41.967Z,56.97
2022-10-31T16:37:35.054Z,60.80
2022-10-31T16:40:14.883Z,61.40
2022-10-31T16:43:06.192Z,67.53
2022-10-31T16:49:03.300Z,66.67
2022-10-31T16:51:41.662Z,69.43
2022-10-31T16:57:30.769Z,70.90
2022-10-31T17:00:33.633Z,79.77
2022-10-31T17:03:00.537Z,72.17
2022-10-31T17:05:30.416Z,74.90
2022-10-31T17:07:58.318Z,74.53
2022-10-31T17:10:27.116Z,80.77
2022-10-31T17:12:54.647Z,81.87
2022-10-31T17:15:41.904Z,84.53
2022-10-31T17:18:14.331Z,81.23
2022-10-31T17:20:41.999Z,86.83
2022-10-31T17:23:11.312Z,81.47
2022-10-31T17:25:38.685Z,89.23
2022-10-31T17:28:06.412Z,73.87
2022-10-31T17:30:34.775Z,80.00
2022-10-31T17:33:02.012Z,81.03
2022-10-31T17:35:29.031Z,84.13
2022-10-31T17:37:58.392Z,81.60
2022-10-31T17:40:25.716Z,82.63
2022-10-31T17:42:56.260Z,72.90
2022-10-31T17:45:27.325Z,80.97
2022-10-31T17:53:35.942Z,79.97
2022-10-31T17:56:02.906Z,85.83
2022-10-31T17:58:45.338Z,78.90
2022-10-31T18:06:44.164Z,80.67
2022-10-31T18:09:11.714Z,86.73
2022-10-31T18:11:38.543Z,83.63
2022-10-31T18:14:05.442Z,79.03
2022-10-31T18:16:32.948Z,89.27
2022-10-31T18:19:01.797Z,85.37
2022-10-31T18:21:29.534Z,87.43
2022-10-31T18:23:57.657Z,80.90
2022-10-31T18:26:34.848Z,90.00
2022-10-31T18:29:02.799Z,94.77
2022-10-31T18:31:29.983Z,78.93
2022-10-31T18:33:57.276Z,87.13
2022-10-31T18:36:25.036Z,78.37
2022-10-31T18:38:51.851Z,84.10
2022-10-31T18:41:29.031Z,86.10
2022-10-31T18:44:07.367Z,84.47
2022-10-31T18:46:35.311Z,81.30
2022-10-31T18:49:03.373Z,81.67
2022-10-31T18:51:30.682Z,82.03
2022-10-31T18:54:05.241Z,82.93
2022-10-31T18:56:46.111Z,75.00
2022-10-31T18:59:13.064Z,71.67
2022-10-31T19:01:49.018Z,82.10
2022-10-31T19:04:29.122Z,74.67
2022-10-31T19:06:57.286Z,77.23
2022-10-31T19:09:24.521Z,74.43
2022-10-31T19:11:51.537Z,77.37
2022-10-31T19:14:18.466Z,79.67
2022-10-31T19:16:45.830Z,81.93
2022-10-31T19:19:16.105Z,80.00
2022-10-31T19:21:46.719Z,80.97
2022-10-31T19:24:13.593Z,79.80
2022-10-31T19:26:40.621Z,79.33
2022-10-31T19:29:13.129Z,79.87
2022-10-31T19:31:44.354Z,82.40
2022-10-31T19:34:11.819Z,83.87
2022-10-31T19:36:48.976Z,76.27
2022-10-31T19:39:15.856Z,79.80
2022-10-31T19:41:42.671Z,77.90
2022-10-31T19:44:11.937Z,80.57
2022-10-31T19:46:59.993Z,66.13
2022-10-31T19:49:28.003Z,71.40
2022-10-31T19:51:55.266Z,73.70
2022-10-31T19:54:22.073Z,68.07
2022-10-31T19:56:49.275Z,64.30
2022-10-31T19:59:16.097Z,62.20
2022-10-31T20:01:42.977Z,68.40
2022-10-31T20:04:10.141Z,64.47
2022-10-31T20:06:40.073Z,65.43
2022-10-31T20:09:09.987Z,60.83
2022-10-31T20:11:38.959Z,61.47
2022-10-31T20:14:06.766Z,61.67
2022-10-31T20:16:34.585Z,63.50
2022-10-31T20:19:02.300Z,67.70
2022-10-31T20:21:32.035Z,63.30
2022-10-31T20:24:04.301Z,63.20
2022-10-31T20:26:33.042Z,62.40
2022-10-31T20:29:00.778Z,56.87
2022-10-31T20:31:31.181Z,61.20
2022-10-31T20:33:58.345Z,56.57
2022-10-31T20:36:29.601Z,58.57
2022-10-31T20:38:56.721Z,55.17
2022-10-31T20:41:27.288Z,55.97
2022-10-31T20:43:54.147Z,58.17
2022-10-31T20:46:26.076Z,59.87
2022-10-31T20:48:54.483Z,58.07
2022-10-31T20:51:35.706Z,63.43
2022-10-31T20:54:02.657Z,58.07
2022-10-31T20:56:29.887Z,57.23
2022-10-31T20:58:57.513Z,63.57
2022-10-31T21:01:31.156Z,54.60
2022-10-31T21:03:58.790Z,59.63
2022-10-31T21:06:25.998Z,56.00
2022-10-31T21:08:54.011Z,66.10
2022-10-31T21:11:23.879Z,60.80
2022-10-31T21:13:51.570Z,68.43
2022-10-31T21:16:19.636Z,65.53
2022-10-31T21:18:47.558Z,62.53
2022-10-31T21:21:19.805Z,65.23
2022-10-31T21:23:47.197Z,71.07
2022-10-31T21:26:32.711Z,62.63
2022-10-31T21:29:00.877Z,60.83
2022-10-31T21:31:28.508Z,63.77
2022-10-31T21:33:55.904Z,63.60
2022-10-31T21:36:22.744Z,62.90
2022-10-31T21:38:51.460Z,68.93
2022-10-31T21:41:19.528Z,71.57
2022-10-31T21:43:48.440Z,66.27
2022-10-31T21:46:23.029Z,67.83
2022-10-31T21:48:50.180Z,68.13
2022-10-31T21:51:29.415Z,61.93
2022-10-31T21:54:15.147Z,69.17
2022-10-31T21:56:42.494Z,66.10
2022-10-31T21:59:11.823Z,70.53
2022-10-31T22:01:39.034Z,71.23
2022-10-31T22:04:06.558Z,66.17
2022-10-31T22:06:33.719Z,63.73
2022-10-31T22:09:02.113Z,71.77
2022-10-31T22:11:29.065Z,68.53
2022-10-31T22:13:58.809Z,68.70
2022-10-31T22:16:27.319Z,78.20
2022-10-31T22:18:56.540Z,75.70
2022-10-31T22:21:34.898Z,76.47
2022-10-31T22:24:04.952Z,77.20
2022-10-31T22:26:33.837Z,77.00
2022-10-31T22:29:04.006Z,74.60
2022-10-31T22:31:32.164Z,82.40
2022-10-31T22:33:59.061Z,80.70
2022-10-31T22:36:28.672Z,79.67
2022-10-31T22:38:56.017Z,71.87
2022-10-31T22:41:25.744Z,67.17
2022-10-31T22:43:54.107Z,61.00
2022-10-31T22:46:24.013Z,64.73
2022-10-31T22:48:53.761Z,65.93
2022-10-31T22:51:32.562Z,64.93
2022-10-31T22:54:00.389Z,73.63
2022-10-31T22:56:30.286Z,71.90
2022-10-31T22:58:58.087Z,67.20
2022-10-31T23:01:27.761Z,72.20
2022-10-31T23:03:55.161Z,77.97
2022-10-31T23:06:24.286Z,71.37
2022-10-31T23:08:52.287Z,71.73
2022-10-31T23:11:23.647Z,77.67
2022-10-31T23:14:09.111Z,74.63
2022-10-31T23:16:57.283Z,66.87
2022-10-31T23:19:30.825Z,71.03
2022-10-31T23:22:00.666Z,70.00
2022-10-31T23:24:38.254Z,66.17
2022-10-31T23:27:09.420Z,71.97
2022-10-31T23:29:55.260Z,66.73
2022-10-31T23:32:35.103Z,70.37
2022-10-31T23:35:05.343Z,67.53
2022-10-31T23:37:34.100Z,67.70
2022-10-31T23:40:01.480Z,58.53
2022-10-31T23:42:29.305Z,61.70
2022-10-31T23:44:56.552Z,62.87
2022-10-31T23:47:23.662Z,53.47
2022-10-31T23:49:51.206Z,51.53
2022-10-31T23:52:18.939Z,51.50
2022-10-31T23:54:46.039Z,50.63
2022-10-31T23:57:14.388Z,58.30
2022-10-31T23:59:41.688Z,51.47
